LGAD

Details ICAO LGAD (PYR)
Name ANDRAVIDA
Region Greece
Timezone Europe/Athens (UTC+3.0)
Plans Departing 15
Arriving 10
Stats Elevation 55 ft / 17 m (AMSL)
Location 37.920700° 21.292600°
Runways 1
Magnetic Variation 4.223° E
Sunrise 2018-10-16 04:45:04 UTC / 2018-10-16 07:45:04 Local
Sunset 2018-10-16 15:58:04 UTC / 2018-10-16 18:58:04 Local
Advertisement - Login to hide

Runways

ID Width Length Bearing (true/mag) Surface Threshold Overrun Markings Lighting
16 148 ft / 45 m 10,313 ft / 3,143 m 164.62° / 160.40° ASPHALT 0 ft / 0 m 75 ft / 23 m APP EDGE THRESHOLD MALS
34 148 ft / 45 m 10,313 ft / 3,143 m 344.63° / 340.40° ASPHALT 0 ft / 0 m 75 ft / 23 m APP EDGE THRESHOLD CALVERT

Map

Weather


0- 5 10 15 20 25 30 35+ Temperature / °C

Clouds and Precipitation
Forecast for 2018-10-16 00:00 UTC. Updated 5 hours ago

Ground ~20,000 ft ~40,000 ft Winds

METAR

LGAD 160150Z 00000KT 9999 FEW020 15/13 Q1019

TAF

Not found

Frequencies

Tower 122.10 MHz
Approach 120.65 MHz
Tower 120.65 MHz
Approach 121.13 MHz
Warning: Do not use this data for real-world aviation or navigation. No guarantee of current accuracy is given.